sensor_id;sensor_type;location;lat;lon;timestamp;temperature;humidity
39677;DHT22;27789;50.840;4.386;2023-11-19T00:01:01;13.90;99.90
39677;DHT22;27789;50.840;4.386;2023-11-19T00:03:26;13.90;99.90
39677;DHT22;27789;50.840;4.386;2023-11-19T00:05:51;13.80;99.90
39677;DHT22;27789;50.840;4.386;2023-11-19T00:08:17;13.90;99.90
39677;DHT22;27789;50.840;4.386;2023-11-19T00:10:42;13.90;99.90
39677;DHT22;27789;50.840;4.386;2023-11-19T00:13:08;13.90;99.90
39677;DHT22;27789;50.840;4.386;2023-11-19T00:15:35;13.90;99.90
39677;DHT22;27789;50.840;4.386;2023-11-19T00:18:00;13.90;99.90
39677;DHT22;27789;50.840;4.386;2023-11-19T00:20:30;13.90;99.90
39677;DHT22;27789;50.840;4.386;2023-11-19T00:22:55;13.90;99.90
39677;DHT22;27789;50.840;4.386;2023-11-19T00:25:21;13.90;99.90
39677;DHT22;27789;50.840;4.386;2023-11-19T00:27:50;13.90;99.90
39677;DHT22;27789;50.840;4.386;2023-11-19T00:30:16;13.90;99.90
39677;DHT22;27789;50.840;4.386;2023-11-19T00:32:42;13.90;99.90
39677;DHT22;27789;50.840;4.386;2023-11-19T00:35:08;13.90;99.90
39677;DHT22;27789;50.840;4.386;2023-11-19T00:37:35;13.90;99.90
39677;DHT22;27789;50.840;4.386;2023-11-19T00:40:01;13.90;99.90
39677;DHT22;27789;50.840;4.386;2023-11-19T00:42:26;13.90;99.90
39677;DHT22;27789;50.840;4.386;2023-11-19T00:44:52;13.90;99.90
39677;DHT22;27789;50.840;4.386;2023-11-19T00:47:17;13.80;99.90
39677;DHT22;27789;50.840;4.386;2023-11-19T00:49:47;13.90;99.90
39677;DHT22;27789;50.840;4.386;2023-11-19T00:52:14;13.90;99.90
39677;DHT22;27789;50.840;4.386;2023-11-19T00:54:40;13.90;99.90
39677;DHT22;27789;50.840;4.386;2023-11-19T00:57:05;13.90;99.90
39677;DHT22;27789;50.840;4.386;2023-11-19T00:59:31;13.90;99.90
39677;DHT22;27789;50.840;4.386;2023-11-19T01:01:58;13.90;99.90
39677;DHT22;27789;50.840;4.386;2023-11-19T01:04:24;13.90;99.90
39677;DHT22;27789;50.840;4.386;2023-11-19T01:06:49;13.90;99.90
39677;DHT22;27789;50.840;4.386;2023-11-19T01:09:15;13.90;99.90
39677;DHT22;27789;50.840;4.386;2023-11-19T01:11:40;13.90;99.90
39677;DHT22;27789;50.840;4.386;2023-11-19T01:14:06;13.90;99.90
39677;DHT22;27789;50.840;4.386;2023-11-19T01:16:31;13.90;99.90
39677;DHT22;27789;50.840;4.386;2023-11-19T01:18:57;14.00;99.90
39677;DHT22;27789;50.840;4.386;2023-11-19T01:21:22;14.00;99.90
39677;DHT22;27789;50.840;4.386;2023-11-19T01:23:48;14.00;99.90
39677;DHT22;27789;50.840;4.386;2023-11-19T01:26:13;14.00;99.90
39677;DHT22;27789;50.840;4.386;2023-11-19T01:28:39;14.00;99.90
39677;DHT22;27789;50.840;4.386;2023-11-19T01:31:05;14.00;99.90
39677;DHT22;27789;50.840;4.386;2023-11-19T01:33:35;14.00;99.90
39677;DHT22;27789;50.840;4.386;2023-11-19T01:36:00;14.00;99.90
39677;DHT22;27789;50.840;4.386;2023-11-19T01:38:26;14.00;99.90
39677;DHT22;27789;50.840;4.386;2023-11-19T01:40:55;13.90;99.90
39677;DHT22;27789;50.840;4.386;2023-11-19T01:43:31;14.00;99.90
39677;DHT22;27789;50.840;4.386;2023-11-19T01:45:56;13.90;99.90
39677;DHT22;27789;50.840;4.386;2023-11-19T01:48:22;13.80;99.90
39677;DHT22;27789;50.840;4.386;2023-11-19T01:50:47;13.80;99.90
39677;DHT22;27789;50.840;4.386;2023-11-19T01:53:13;13.80;99.90
39677;DHT22;27789;50.840;4.386;2023-11-19T01:55:38;13.80;99.90
39677;DHT22;27789;50.840;4.386;2023-11-19T01:58:04;13.80;99.90
39677;DHT22;27789;50.840;4.386;2023-11-19T02:00:29;13.90;99.90
39677;DHT22;27789;50.840;4.386;2023-11-19T02:02:55;13.90;99.90
39677;DHT22;27789;50.840;4.386;2023-11-19T02:05:21;13.90;99.90
39677;DHT22;27789;50.840;4.386;2023-11-19T02:07:47;13.90;99.90
39677;DHT22;27789;50.840;4.386;2023-11-19T02:10:12;13.90;99.90
39677;DHT22;27789;50.840;4.386;2023-11-19T02:12:40;13.80;99.90
39677;DHT22;27789;50.840;4.386;2023-11-19T02:15:08;13.80;99.90
39677;DHT22;27789;50.840;4.386;2023-11-19T02:17:34;13.70;99.90
39677;DHT22;27789;50.840;4.386;2023-11-19T02:20:00;13.70;99.90
39677;DHT22;27789;50.840;4.386;2023-11-19T02:22:25;13.60;99.90
39677;DHT22;27789;50.840;4.386;2023-11-19T02:24:51;13.60;99.90
39677;DHT22;27789;50.840;4.386;2023-11-19T02:30:04;13.50;99.90
39677;DHT22;27789;50.840;4.386;2023-11-19T02:32:31;13.60;99.90
39677;DHT22;27789;50.840;4.386;2023-11-19T02:34:56;13.50;99.90
39677;DHT22;27789;50.840;4.386;2023-11-19T02:37:22;13.50;99.90
39677;DHT22;27789;50.840;4.386;2023-11-19T02:39:48;13.40;99.90
39677;DHT22;27789;50.840;4.386;2023-11-19T02:42:13;13.50;99.90
39677;DHT22;27789;50.840;4.386;2023-11-19T02:44:43;13.50;99.90
39677;DHT22;27789;50.840;4.386;2023-11-19T02:47:08;13.50;99.90
39677;DHT22;27789;50.840;4.386;2023-11-19T02:49:34;13.60;99.90
39677;DHT22;27789;50.840;4.386;2023-11-19T02:51:59;13.50;99.90
39677;DHT22;27789;50.840;4.386;2023-11-19T02:54:25;13.60;99.90
39677;DHT22;27789;50.840;4.386;2023-11-19T02:56:52;13.60;99.90
39677;DHT22;27789;50.840;4.386;2023-11-19T02:59:21;13.60;99.90
39677;DHT22;27789;50.840;4.386;2023-11-19T03:01:53;13.50;99.90
39677;DHT22;27789;50.840;4.386;2023-11-19T03:04:18;13.50;99.90
39677;DHT22;27789;50.840;4.386;2023-11-19T03:06:45;13.40;99.90
39677;DHT22;27789;50.840;4.386;2023-11-19T03:09:11;13.40;99.90
39677;DHT22;27789;50.840;4.386;2023-11-19T03:11:36;13.30;99.90
39677;DHT22;27789;50.840;4.386;2023-11-19T03:14:02;13.30;99.90
39677;DHT22;27789;50.840;4.386;2023-11-19T03:16:30;13.30;99.90
39677;DHT22;27789;50.840;4.386;2023-11-19T03:18:56;13.30;99.90
39677;DHT22;27789;50.840;4.386;2023-11-19T03:21:31;13.30;99.90
39677;DHT22;27789;50.840;4.386;2023-11-19T03:23:57;13.20;99.90
39677;DHT22;27789;50.840;4.386;2023-11-19T03:26:23;13.10;99.90
39677;DHT22;27789;50.840;4.386;2023-11-19T03:28:48;13.10;99.90
39677;DHT22;27789;50.840;4.386;2023-11-19T03:31:14;13.10;99.90
39677;DHT22;27789;50.840;4.386;2023-11-19T03:33:39;13.10;99.90
39677;DHT22;27789;50.840;4.386;2023-11-19T03:36:05;13.10;99.90
39677;DHT22;27789;50.840;4.386;2023-11-19T03:38:31;13.10;99.90
39677;DHT22;27789;50.840;4.386;2023-11-19T03:40:56;13.00;99.90
39677;DHT22;27789;50.840;4.386;2023-11-19T03:43:22;13.00;99.90
39677;DHT22;27789;50.840;4.386;2023-11-19T03:45:47;12.90;99.90
39677;DHT22;27789;50.840;4.386;2023-11-19T03:48:13;12.90;99.90
39677;DHT22;27789;50.840;4.386;2023-11-19T03:50:41;13.00;99.90
39677;DHT22;27789;50.840;4.386;2023-11-19T03:53:07;12.90;99.90
39677;DHT22;27789;50.840;4.386;2023-11-19T03:55:32;12.90;99.90
39677;DHT22;27789;50.840;4.386;2023-11-19T03:57:58;12.80;99.90
39677;DHT22;27789;50.840;4.386;2023-11-19T04:00:23;12.80;99.90
39677;DHT22;27789;50.840;4.386;2023-11-19T04:02:49;12.80;99.90
39677;DHT22;27789;50.840;4.386;2023-11-19T04:05:14;12.80;99.90
39677;DHT22;27789;50.840;4.386;2023-11-19T04:07:40;12.80;99.90
39677;DHT22;27789;50.840;4.386;2023-11-19T04:10:05;12.90;99.90
39677;DHT22;27789;50.840;4.386;2023-11-19T04:12:31;12.90;99.90
39677;DHT22;27789;50.840;4.386;2023-11-19T04:14:56;12.90;99.90
39677;DHT22;27789;50.840;4.386;2023-11-19T04:17:22;12.90;99.90
39677;DHT22;27789;50.840;4.386;2023-11-19T04:19:48;12.90;99.90
39677;DHT22;27789;50.840;4.386;2023-11-19T04:22:14;12.90;99.90
39677;DHT22;27789;50.840;4.386;2023-11-19T04:24:39;12.90;99.90
39677;DHT22;27789;50.840;4.386;2023-11-19T04:27:06;12.90;99.90
39677;DHT22;27789;50.840;4.386;2023-11-19T04:29:31;12.80;99.90
39677;DHT22;27789;50.840;4.386;2023-11-19T04:31:57;12.80;99.90
39677;DHT22;27789;50.840;4.386;2023-11-19T04:34:23;12.80;99.90
39677;DHT22;27789;50.840;4.386;2023-11-19T04:36:49;12.80;99.90
39677;DHT22;27789;50.840;4.386;2023-11-19T04:39:14;12.70;99.90
39677;DHT22;27789;50.840;4.386;2023-11-19T04:41:59;12.80;99.90
39677;DHT22;27789;50.840;4.386;2023-11-19T04:44:24;12.70;99.90
39677;DHT22;27789;50.840;4.386;2023-11-19T04:46:50;12.70;99.90
39677;DHT22;27789;50.840;4.386;2023-11-19T04:49:15;12.80;99.90
39677;DHT22;27789;50.840;4.386;2023-11-19T04:51:42;12.80;99.90
39677;DHT22;27789;50.840;4.386;2023-11-19T04:54:08;12.80;99.90
39677;DHT22;27789;50.840;4.386;2023-11-19T04:56:34;12.80;99.90
39677;DHT22;27789;50.840;4.386;2023-11-19T04:59:01;12.90;99.90
39677;DHT22;27789;50.840;4.386;2023-11-19T05:01:27;12.90;99.90
39677;DHT22;27789;50.840;4.386;2023-11-19T05:03:52;12.90;99.90
39677;DHT22;27789;50.840;4.386;2023-11-19T05:06:18;13.00;99.90
39677;DHT22;27789;50.840;4.386;2023-11-19T05:08:44;12.90;99.90
39677;DHT22;27789;50.840;4.386;2023-11-19T05:11:09;12.90;99.90
39677;DHT22;27789;50.840;4.386;2023-11-19T05:13:37;12.80;99.90
39677;DHT22;27789;50.840;4.386;2023-11-19T05:16:03;12.80;99.90
39677;DHT22;27789;50.840;4.386;2023-11-19T05:18:28;12.70;99.90
39677;DHT22;27789;50.840;4.386;2023-11-19T05:20:54;12.70;99.90
39677;DHT22;27789;50.840;4.386;2023-11-19T05:23:19;12.60;99.90
39677;DHT22;27789;50.840;4.386;2023-11-19T05:25:45;12.60;99.90
39677;DHT22;27789;50.840;4.386;2023-11-19T05:28:11;12.60;99.90
39677;DHT22;27789;50.840;4.386;2023-11-19T05:30:36;12.50;99.90
39677;DHT22;27789;50.840;4.386;2023-11-19T05:33:02;12.50;99.90
39677;DHT22;27789;50.840;4.386;2023-11-19T05:35:27;12.50;99.90
39677;DHT22;27789;50.840;4.386;2023-11-19T05:37:53;12.50;99.90
39677;DHT22;27789;50.840;4.386;2023-11-19T05:40:18;12.60;99.90
39677;DHT22;27789;50.840;4.386;2023-11-19T05:42:45;12.60;99.90
39677;DHT22;27789;50.840;4.386;2023-11-19T05:45:11;12.60;99.90
39677;DHT22;27789;50.840;4.386;2023-11-19T05:47:37;12.70;99.90
39677;DHT22;27789;50.840;4.386;2023-11-19T05:50:02;12.60;99.90
39677;DHT22;27789;50.840;4.386;2023-11-19T05:52:28;12.60;99.90
39677;DHT22;27789;50.840;4.386;2023-11-19T05:54:59;12.60;99.90
39677;DHT22;27789;50.840;4.386;2023-11-19T05:57:27;12.50;99.90
39677;DHT22;27789;50.840;4.386;2023-11-19T05:59:54;12.50;99.90
39677;DHT22;27789;50.840;4.386;2023-11-19T06:02:20;12.40;99.90
39677;DHT22;27789;50.840;4.386;2023-11-19T06:04:45;12.40;99.90
39677;DHT22;27789;50.840;4.386;2023-11-19T06:07:13;12.40;99.90
39677;DHT22;27789;50.840;4.386;2023-11-19T06:09:39;12.30;99.90
39677;DHT22;27789;50.840;4.386;2023-11-19T06:12:05;12.30;99.90
39677;DHT22;27789;50.840;4.386;2023-11-19T06:14:31;12.30;99.90
39677;DHT22;27789;50.840;4.386;2023-11-19T06:16:57;12.20;99.90
39677;DHT22;27789;50.840;4.386;2023-11-19T06:19:22;12.30;99.90
39677;DHT22;27789;50.840;4.386;2023-11-19T06:21:49;12.20;99.90
39677;DHT22;27789;50.840;4.386;2023-11-19T06:24:15;12.20;99.90
39677;DHT22;27789;50.840;4.386;2023-11-19T06:26:40;12.20;99.90
39677;DHT22;27789;50.840;4.386;2023-11-19T06:29:06;12.20;99.90
39677;DHT22;27789;50.840;4.386;2023-11-19T06:31:32;12.10;99.90
39677;DHT22;27789;50.840;4.386;2023-11-19T06:34:00;12.10;99.90
39677;DHT22;27789;50.840;4.386;2023-11-19T06:36:26;12.10;99.90
39677;DHT22;27789;50.840;4.386;2023-11-19T06:38:52;12.10;99.90
39677;DHT22;27789;50.840;4.386;2023-11-19T06:41:17;12.10;99.90
39677;DHT22;27789;50.840;4.386;2023-11-19T06:43:43;12.10;99.90
39677;DHT22;27789;50.840;4.386;2023-11-19T06:46:15;12.20;99.90
39677;DHT22;27789;50.840;4.386;2023-11-19T06:48:41;12.10;99.90
39677;DHT22;27789;50.840;4.386;2023-11-19T06:51:09;12.10;99.90
39677;DHT22;27789;50.840;4.386;2023-11-19T06:53:34;12.20;99.90
39677;DHT22;27789;50.840;4.386;2023-11-19T06:56:01;12.20;99.90
39677;DHT22;27789;50.840;4.386;2023-11-19T06:58:28;12.10;99.90
39677;DHT22;27789;50.840;4.386;2023-11-19T07:00:53;12.00;99.90
39677;DHT22;27789;50.840;4.386;2023-11-19T07:03:19;12.00;99.90
39677;DHT22;27789;50.840;4.386;2023-11-19T07:05:46;12.00;99.90
39677;DHT22;27789;50.840;4.386;2023-11-19T07:08:11;12.00;99.90
39677;DHT22;27789;50.840;4.386;2023-11-19T07:10:37;12.00;99.90
39677;DHT22;27789;50.840;4.386;2023-11-19T07:13:03;12.00;99.90
39677;DHT22;27789;50.840;4.386;2023-11-19T07:15:31;12.00;99.90
39677;DHT22;27789;50.840;4.386;2023-11-19T07:17:57;12.10;99.90
39677;DHT22;27789;50.840;4.386;2023-11-19T07:20:25;12.10;99.90
39677;DHT22;27789;50.840;4.386;2023-11-19T07:22:52;12.10;99.90
39677;DHT22;27789;50.840;4.386;2023-11-19T07:25:17;12.10;99.90
39677;DHT22;27789;50.840;4.386;2023-11-19T07:27:43;12.10;99.90
39677;DHT22;27789;50.840;4.386;2023-11-19T07:30:08;12.10;99.90
39677;DHT22;27789;50.840;4.386;2023-11-19T07:32:34;12.00;99.90
39677;DHT22;27789;50.840;4.386;2023-11-19T07:34:59;12.10;99.90
39677;DHT22;27789;50.840;4.386;2023-11-19T07:37:25;12.00;99.90
39677;DHT22;27789;50.840;4.386;2023-11-19T07:39:51;12.00;99.90
39677;DHT22;27789;50.840;4.386;2023-11-19T07:42:16;12.00;99.90
39677;DHT22;27789;50.840;4.386;2023-11-19T07:44:42;12.00;99.90
39677;DHT22;27789;50.840;4.386;2023-11-19T07:47:08;12.00;99.90
39677;DHT22;27789;50.840;4.386;2023-11-19T07:49:34;12.00;99.90
39677;DHT22;27789;50.840;4.386;2023-11-19T07:51:59;12.00;99.90
39677;DHT22;27789;50.840;4.386;2023-11-19T07:54:25;12.00;99.90
39677;DHT22;27789;50.840;4.386;2023-11-19T07:56:50;12.10;99.90
39677;DHT22;27789;50.840;4.386;2023-11-19T07:59:16;12.10;99.90
39677;DHT22;27789;50.840;4.386;2023-11-19T08:01:41;12.10;99.90
39677;DHT22;27789;50.840;4.386;2023-11-19T08:04:07;12.20;99.90
39677;DHT22;27789;50.840;4.386;2023-11-19T08:06:33;12.20;99.90
39677;DHT22;27789;50.840;4.386;2023-11-19T08:08:58;12.20;99.90
39677;DHT22;27789;50.840;4.386;2023-11-19T08:11:24;12.20;99.90
39677;DHT22;27789;50.840;4.386;2023-11-19T08:13:50;12.20;99.90
39677;DHT22;27789;50.840;4.386;2023-11-19T08:16:15;12.20;99.90
39677;DHT22;27789;50.840;4.386;2023-11-19T08:18:44;12.30;99.90
39677;DHT22;27789;50.840;4.386;2023-11-19T08:21:09;12.30;99.90
39677;DHT22;27789;50.840;4.386;2023-11-19T08:23:35;12.30;99.90
39677;DHT22;27789;50.840;4.386;2023-11-19T08:26:01;12.40;99.90
39677;DHT22;27789;50.840;4.386;2023-11-19T08:28:27;12.40;99.90
39677;DHT22;27789;50.840;4.386;2023-11-19T08:30:53;12.50;99.90
39677;DHT22;27789;50.840;4.386;2023-11-19T08:33:18;12.60;99.90
39677;DHT22;27789;50.840;4.386;2023-11-19T08:35:44;12.70;99.90
39677;DHT22;27789;50.840;4.386;2023-11-19T08:38:10;12.80;99.90
39677;DHT22;27789;50.840;4.386;2023-11-19T08:40:35;12.80;99.90
39677;DHT22;27789;50.840;4.386;2023-11-19T08:43:01;12.80;99.90
39677;DHT22;27789;50.840;4.386;2023-11-19T08:45:26;12.70;99.90
39677;DHT22;27789;50.840;4.386;2023-11-19T08:47:52;12.50;99.90
39677;DHT22;27789;50.840;4.386;2023-11-19T08:50:17;12.40;99.90
39677;DHT22;27789;50.840;4.386;2023-11-19T08:52:43;12.30;99.90
39677;DHT22;27789;50.840;4.386;2023-11-19T08:55:08;12.30;99.90
39677;DHT22;27789;50.840;4.386;2023-11-19T08:57:35;12.30;99.90
39677;DHT22;27789;50.840;4.386;2023-11-19T09:00:01;12.40;99.90
39677;DHT22;27789;50.840;4.386;2023-11-19T09:02:26;12.40;99.90
39677;DHT22;27789;50.840;4.386;2023-11-19T09:04:52;12.50;99.90
39677;DHT22;27789;50.840;4.386;2023-11-19T09:07:17;12.60;99.90
39677;DHT22;27789;50.840;4.386;2023-11-19T09:09:43;12.60;99.90
39677;DHT22;27789;50.840;4.386;2023-11-19T09:12:08;12.60;99.90
39677;DHT22;27789;50.840;4.386;2023-11-19T09:14:34;12.50;99.90
39677;DHT22;27789;50.840;4.386;2023-11-19T09:16:59;12.50;99.90
39677;DHT22;27789;50.840;4.386;2023-11-19T09:19:25;12.60;99.90
39677;DHT22;27789;50.840;4.386;2023-11-19T09:21:52;12.80;99.90
39677;DHT22;27789;50.840;4.386;2023-11-19T09:24:18;13.00;99.90
39677;DHT22;27789;50.840;4.386;2023-11-19T09:26:43;13.50;99.90
39677;DHT22;27789;50.840;4.386;2023-11-19T09:29:09;14.00;99.90
39677;DHT22;27789;50.840;4.386;2023-11-19T09:31:34;14.20;99.90
39677;DHT22;27789;50.840;4.386;2023-11-19T09:34:00;14.40;99.90
39677;DHT22;27789;50.840;4.386;2023-11-19T09:36:26;14.10;99.90
39677;DHT22;27789;50.840;4.386;2023-11-19T09:38:51;14.10;99.90
39677;DHT22;27789;50.840;4.386;2023-11-19T09:41:17;14.30;99.90
39677;DHT22;27789;50.840;4.386;2023-11-19T09:43:44;14.40;99.90
39677;DHT22;27789;50.840;4.386;2023-11-19T09:46:10;14.60;99.90
39677;DHT22;27789;50.840;4.386;2023-11-19T09:48:37;14.80;99.90
39677;DHT22;27789;50.840;4.386;2023-11-19T09:51:03;15.40;99.90
39677;DHT22;27789;50.840;4.386;2023-11-19T09:53:29;16.00;99.90
39677;DHT22;27789;50.840;4.386;2023-11-19T09:55:55;16.30;99.90
39677;DHT22;27789;50.840;4.386;2023-11-19T09:58:21;16.60;99.90
39677;DHT22;27789;50.840;4.386;2023-11-19T10:00:47;16.30;99.90
39677;DHT22;27789;50.840;4.386;2023-11-19T10:03:13;16.00;99.90
39677;DHT22;27789;50.840;4.386;2023-11-19T10:05:38;15.80;99.90
39677;DHT22;27789;50.840;4.386;2023-11-19T10:08:05;16.00;99.90
39677;DHT22;27789;50.840;4.386;2023-11-19T10:10:31;16.30;99.90
39677;DHT22;27789;50.840;4.386;2023-11-19T10:12:56;16.30;99.90
39677;DHT22;27789;50.840;4.386;2023-11-19T10:15:23;15.80;99.90
39677;DHT22;27789;50.840;4.386;2023-11-19T10:17:49;15.10;99.90
39677;DHT22;27789;50.840;4.386;2023-11-19T10:20:15;15.00;99.90
39677;DHT22;27789;50.840;4.386;2023-11-19T10:22:40;14.80;99.90
39677;DHT22;27789;50.840;4.386;2023-11-19T10:25:22;14.80;99.90
39677;DHT22;27789;50.840;4.386;2023-11-19T10:27:49;14.80;99.90
39677;DHT22;27789;50.840;4.386;2023-11-19T10:30:19;15.10;99.90
39677;DHT22;27789;50.840;4.386;2023-11-19T10:32:45;15.40;99.90
39677;DHT22;27789;50.840;4.386;2023-11-19T10:35:11;15.50;99.90
39677;DHT22;27789;50.840;4.386;2023-11-19T10:37:37;15.20;99.90
39677;DHT22;27789;50.840;4.386;2023-11-19T10:40:03;15.10;99.90
39677;DHT22;27789;50.840;4.386;2023-11-19T10:42:30;15.00;99.90
39677;DHT22;27789;50.840;4.386;2023-11-19T10:44:56;14.90;99.90
39677;DHT22;27789;50.840;4.386;2023-11-19T10:47:22;14.60;99.90
39677;DHT22;27789;50.840;4.386;2023-11-19T10:49:48;14.50;99.90
39677;DHT22;27789;50.840;4.386;2023-11-19T10:52:17;14.40;99.90
39677;DHT22;27789;50.840;4.386;2023-11-19T10:54:44;14.40;99.90
39677;DHT22;27789;50.840;4.386;2023-11-19T10:57:15;14.40;99.90
39677;DHT22;27789;50.840;4.386;2023-11-19T10:59:42;14.70;99.90
39677;DHT22;27789;50.840;4.386;2023-11-19T11:02:10;15.10;99.90
39677;DHT22;27789;50.840;4.386;2023-11-19T11:04:39;16.00;99.90
39677;DHT22;27789;50.840;4.386;2023-11-19T11:07:05;16.70;99.90
39677;DHT22;27789;50.840;4.386;2023-11-19T11:09:32;16.50;99.90
39677;DHT22;27789;50.840;4.386;2023-11-19T11:11:58;16.20;99.90
39677;DHT22;27789;50.840;4.386;2023-11-19T11:14:24;15.60;99.90
39677;DHT22;27789;50.840;4.386;2023-11-19T11:16:51;15.10;99.90
39677;DHT22;27789;50.840;4.386;2023-11-19T11:19:18;14.70;99.90
39677;DHT22;27789;50.840;4.386;2023-11-19T11:21:45;14.60;99.90
39677;DHT22;27789;50.840;4.386;2023-11-19T11:29:41;14.20;99.90
39677;DHT22;27789;50.840;4.386;2023-11-19T11:39:51;15.10;99.90
39677;DHT22;27789;50.840;4.386;2023-11-19T11:45:01;15.90;99.90
39677;DHT22;27789;50.840;4.386;2023-11-19T11:50:16;17.20;99.90
39677;DHT22;27789;50.840;4.386;2023-11-19T11:55:27;19.20;99.90
39677;DHT22;27789;50.840;4.386;2023-11-19T11:57:56;19.20;99.90
39677;DHT22;27789;50.840;4.386;2023-11-19T12:00:21;19.00;99.90
39677;DHT22;27789;50.840;4.386;2023-11-19T12:02:48;19.00;99.90
39677;DHT22;27789;50.840;4.386;2023-11-19T12:05:14;18.20;99.90
39677;DHT22;27789;50.840;4.386;2023-11-19T12:07:39;17.50;99.90
39677;DHT22;27789;50.840;4.386;2023-11-19T12:10:06;16.80;99.90
39677;DHT22;27789;50.840;4.386;2023-11-19T12:12:37;16.30;99.90
39677;DHT22;27789;50.840;4.386;2023-11-19T12:15:08;16.30;99.90
39677;DHT22;27789;50.840;4.386;2023-11-19T12:17:37;16.10;99.90
39677;DHT22;27789;50.840;4.386;2023-11-19T12:20:05;15.60;99.90
39677;DHT22;27789;50.840;4.386;2023-11-19T12:22:37;15.20;99.90
39677;DHT22;27789;50.840;4.386;2023-11-19T12:25:04;14.90;99.90
39677;DHT22;27789;50.840;4.386;2023-11-19T12:27:30;14.80;99.90
39677;DHT22;27789;50.840;4.386;2023-11-19T12:29:56;14.60;99.90
39677;DHT22;27789;50.840;4.386;2023-11-19T12:32:22;14.50;99.90
39677;DHT22;27789;50.840;4.386;2023-11-19T12:34:47;14.40;99.90
39677;DHT22;27789;50.840;4.386;2023-11-19T12:37:13;14.30;99.90
39677;DHT22;27789;50.840;4.386;2023-11-19T12:39:38;14.10;99.90
39677;DHT22;27789;50.840;4.386;2023-11-19T12:42:05;14.10;99.90
39677;DHT22;27789;50.840;4.386;2023-11-19T12:44:31;14.10;99.90
39677;DHT22;27789;50.840;4.386;2023-11-19T12:47:00;14.10;99.90
39677;DHT22;27789;50.840;4.386;2023-11-19T12:49:29;14.10;99.90
39677;DHT22;27789;50.840;4.386;2023-11-19T12:51:54;14.10;99.90
39677;DHT22;27789;50.840;4.386;2023-11-19T12:54:20;14.00;99.90
39677;DHT22;27789;50.840;4.386;2023-11-19T12:56:54;14.00;99.90
39677;DHT22;27789;50.840;4.386;2023-11-19T12:59:20;14.00;99.90
39677;DHT22;27789;50.840;4.386;2023-11-19T13:02:03;13.90;99.90
39677;DHT22;27789;50.840;4.386;2023-11-19T13:04:31;13.90;99.90
39677;DHT22;27789;50.840;4.386;2023-11-19T13:06:57;13.90;99.90
39677;DHT22;27789;50.840;4.386;2023-11-19T13:09:23;14.10;99.90
39677;DHT22;27789;50.840;4.386;2023-11-19T13:11:50;14.10;99.90
39677;DHT22;27789;50.840;4.386;2023-11-19T13:14:16;14.10;99.90
39677;DHT22;27789;50.840;4.386;2023-11-19T13:16:42;13.90;99.90
39677;DHT22;27789;50.840;4.386;2023-11-19T13:19:13;13.90;99.90
39677;DHT22;27789;50.840;4.386;2023-11-19T13:21:39;14.00;99.90
39677;DHT22;27789;50.840;4.386;2023-11-19T13:24:08;14.00;99.90
39677;DHT22;27789;50.840;4.386;2023-11-19T13:26:33;14.10;99.90
39677;DHT22;27789;50.840;4.386;2023-11-19T13:29:00;14.10;99.90
39677;DHT22;27789;50.840;4.386;2023-11-19T13:31:26;14.00;99.90
39677;DHT22;27789;50.840;4.386;2023-11-19T13:33:51;14.00;99.90
39677;DHT22;27789;50.840;4.386;2023-11-19T13:36:17;14.00;99.90
39677;DHT22;27789;50.840;4.386;2023-11-19T13:38:42;13.90;99.90
39677;DHT22;27789;50.840;4.386;2023-11-19T13:41:09;13.80;99.90
39677;DHT22;27789;50.840;4.386;2023-11-19T13:43:36;13.70;99.90
39677;DHT22;27789;50.840;4.386;2023-11-19T13:46:02;13.70;99.90
39677;DHT22;27789;50.840;4.386;2023-11-19T13:48:27;13.70;99.90
39677;DHT22;27789;50.840;4.386;2023-11-19T13:50:57;13.80;99.90
39677;DHT22;27789;50.840;4.386;2023-11-19T13:53:22;13.70;99.90
39677;DHT22;27789;50.840;4.386;2023-11-19T13:55:49;13.80;99.90
39677;DHT22;27789;50.840;4.386;2023-11-19T13:58:14;13.70;99.90
39677;DHT22;27789;50.840;4.386;2023-11-19T14:00:41;13.70;99.90
39677;DHT22;27789;50.840;4.386;2023-11-19T14:03:07;13.70;99.90
39677;DHT22;27789;50.840;4.386;2023-11-19T14:05:33;13.60;99.90
39677;DHT22;27789;50.840;4.386;2023-11-19T14:07:58;13.60;99.90
39677;DHT22;27789;50.840;4.386;2023-11-19T14:10:24;13.60;99.90
39677;DHT22;27789;50.840;4.386;2023-11-19T14:12:49;13.60;99.90
39677;DHT22;27789;50.840;4.386;2023-11-19T14:15:15;13.60;99.90
39677;DHT22;27789;50.840;4.386;2023-11-19T14:17:42;13.60;99.90
39677;DHT22;27789;50.840;4.386;2023-11-19T14:20:08;13.60;99.90
39677;DHT22;27789;50.840;4.386;2023-11-19T14:22:41;13.60;99.90
39677;DHT22;27789;50.840;4.386;2023-11-19T14:25:07;13.50;99.90
39677;DHT22;27789;50.840;4.386;2023-11-19T14:27:38;13.50;99.90
39677;DHT22;27789;50.840;4.386;2023-11-19T14:30:08;13.50;99.90
39677;DHT22;27789;50.840;4.386;2023-11-19T14:32:35;13.40;99.90
39677;DHT22;27789;50.840;4.386;2023-11-19T14:35:00;13.30;99.90
39677;DHT22;27789;50.840;4.386;2023-11-19T14:37:26;13.20;99.90
39677;DHT22;27789;50.840;4.386;2023-11-19T14:39:51;13.20;99.90
39677;DHT22;27789;50.840;4.386;2023-11-19T14:42:17;13.10;99.90
39677;DHT22;27789;50.840;4.386;2023-11-19T14:44:42;13.10;99.90
39677;DHT22;27789;50.840;4.386;2023-11-19T14:47:08;13.10;99.90
39677;DHT22;27789;50.840;4.386;2023-11-19T14:49:34;13.10;99.90
39677;DHT22;27789;50.840;4.386;2023-11-19T14:52:00;13.10;99.90
39677;DHT22;27789;50.840;4.386;2023-11-19T14:54:25;13.10;99.90
39677;DHT22;27789;50.840;4.386;2023-11-19T14:56:51;13.10;99.90
39677;DHT22;27789;50.840;4.386;2023-11-19T14:59:17;13.10;99.90
39677;DHT22;27789;50.840;4.386;2023-11-19T15:01:46;13.10;99.90
39677;DHT22;27789;50.840;4.386;2023-11-19T15:04:11;13.10;99.90
39677;DHT22;27789;50.840;4.386;2023-11-19T15:06:38;13.10;99.90
39677;DHT22;27789;50.840;4.386;2023-11-19T15:09:04;13.10;99.90
39677;DHT22;27789;50.840;4.386;2023-11-19T15:13:59;13.10;99.90
39677;DHT22;27789;50.840;4.386;2023-11-19T15:16:26;13.10;99.90
39677;DHT22;27789;50.840;4.386;2023-11-19T15:18:57;13.00;99.90
39677;DHT22;27789;50.840;4.386;2023-11-19T15:21:25;13.10;99.90
39677;DHT22;27789;50.840;4.386;2023-11-19T15:23:51;13.10;99.90
39677;DHT22;27789;50.840;4.386;2023-11-19T15:26:17;13.10;99.90
39677;DHT22;27789;50.840;4.386;2023-11-19T15:28:43;13.10;99.90
39677;DHT22;27789;50.840;4.386;2023-11-19T15:31:08;13.20;99.90
39677;DHT22;27789;50.840;4.386;2023-11-19T15:33:35;13.20;99.90
39677;DHT22;27789;50.840;4.386;2023-11-19T15:36:00;13.20;99.90
39677;DHT22;27789;50.840;4.386;2023-11-19T15:38:28;13.20;99.90
39677;DHT22;27789;50.840;4.386;2023-11-19T15:40:53;13.20;99.90
39677;DHT22;27789;50.840;4.386;2023-11-19T15:43:19;13.20;99.90
39677;DHT22;27789;50.840;4.386;2023-11-19T15:45:45;13.30;99.90
39677;DHT22;27789;50.840;4.386;2023-11-19T15:48:11;13.30;99.90
39677;DHT22;27789;50.840;4.386;2023-11-19T15:50:38;13.30;99.90